sensor_id;sensor_type;location;lat;lon;timestamp;temperature;humidity
35541;DHT22;21650;48.840;9.162;2022-12-07T00:01:24;3.60;99.90
35541;DHT22;21650;48.840;9.162;2022-12-07T00:03:52;3.60;99.90
35541;DHT22;21650;48.840;9.162;2022-12-07T00:06:19;3.50;99.90
35541;DHT22;21650;48.840;9.162;2022-12-07T00:08:45;3.60;99.90
35541;DHT22;21650;48.840;9.162;2022-12-07T00:11:14;3.50;99.90
35541;DHT22;21650;48.840;9.162;2022-12-07T00:13:40;3.50;99.90
35541;DHT22;21650;48.840;9.162;2022-12-07T00:16:17;3.50;99.90
35541;DHT22;21650;48.840;9.162;2022-12-07T00:18:43;3.50;99.90
35541;DHT22;21650;48.840;9.162;2022-12-07T00:21:12;3.50;99.90
35541;DHT22;21650;48.840;9.162;2022-12-07T00:23:39;3.60;99.90
35541;DHT22;21650;48.840;9.162;2022-12-07T00:26:16;3.50;99.90
35541;DHT22;21650;48.840;9.162;2022-12-07T00:28:46;3.50;99.90
35541;DHT22;21650;48.840;9.162;2022-12-07T00:31:13;3.60;99.90
35541;DHT22;21650;48.840;9.162;2022-12-07T00:33:39;3.50;99.90
35541;DHT22;21650;48.840;9.162;2022-12-07T00:36:08;3.50;99.90
35541;DHT22;21650;48.840;9.162;2022-12-07T00:38:35;3.50;99.90
35541;DHT22;21650;48.840;9.162;2022-12-07T00:41:06;3.40;99.90
35541;DHT22;21650;48.840;9.162;2022-12-07T00:43:32;3.50;99.90
35541;DHT22;21650;48.840;9.162;2022-12-07T00:45:58;3.50;99.90
35541;DHT22;21650;48.840;9.162;2022-12-07T00:48:24;3.50;99.90
35541;DHT22;21650;48.840;9.162;2022-12-07T00:50:50;3.50;99.90
35541;DHT22;21650;48.840;9.162;2022-12-07T00:53:16;3.40;99.90
35541;DHT22;21650;48.840;9.162;2022-12-07T00:55:42;3.40;99.90
35541;DHT22;21650;48.840;9.162;2022-12-07T00:58:08;3.40;99.90
35541;DHT22;21650;48.840;9.162;2022-12-07T01:00:37;3.40;99.90
35541;DHT22;21650;48.840;9.162;2022-12-07T01:03:04;3.40;99.90
35541;DHT22;21650;48.840;9.162;2022-12-07T01:05:29;3.40;99.90
35541;DHT22;21650;48.840;9.162;2022-12-07T01:07:55;3.30;99.90
35541;DHT22;21650;48.840;9.162;2022-12-07T01:10:20;3.30;99.90
35541;DHT22;21650;48.840;9.162;2022-12-07T01:12:46;3.30;99.90
35541;DHT22;21650;48.840;9.162;2022-12-07T01:15:12;3.30;99.90
35541;DHT22;21650;48.840;9.162;2022-12-07T01:17:37;3.40;99.90
35541;DHT22;21650;48.840;9.162;2022-12-07T01:20:04;3.30;99.90
35541;DHT22;21650;48.840;9.162;2022-12-07T01:22:29;3.30;99.90
35541;DHT22;21650;48.840;9.162;2022-12-07T01:24:55;3.30;99.90
35541;DHT22;21650;48.840;9.162;2022-12-07T01:27:21;3.30;99.90
35541;DHT22;21650;48.840;9.162;2022-12-07T01:29:46;3.30;99.90
35541;DHT22;21650;48.840;9.162;2022-12-07T01:32:12;3.30;99.90
35541;DHT22;21650;48.840;9.162;2022-12-07T01:34:37;3.30;99.90
35541;DHT22;21650;48.840;9.162;2022-12-07T01:37:03;3.40;99.90
35541;DHT22;21650;48.840;9.162;2022-12-07T01:42:51;3.30;99.90
35541;DHT22;21650;48.840;9.162;2022-12-07T01:45:37;3.30;99.90
35541;DHT22;21650;48.840;9.162;2022-12-07T01:48:03;3.30;99.90
35541;DHT22;21650;48.840;9.162;2022-12-07T01:50:30;3.30;99.90
35541;DHT22;21650;48.840;9.162;2022-12-07T01:53:00;3.30;99.90
35541;DHT22;21650;48.840;9.162;2022-12-07T01:55:28;3.30;99.90
35541;DHT22;21650;48.840;9.162;2022-12-07T01:57:55;3.30;99.90
35541;DHT22;21650;48.840;9.162;2022-12-07T02:00:21;3.30;99.90
35541;DHT22;21650;48.840;9.162;2022-12-07T02:05:31;3.30;99.90
35541;DHT22;21650;48.840;9.162;2022-12-07T02:07:58;3.30;99.90
35541;DHT22;21650;48.840;9.162;2022-12-07T02:10:27;3.30;99.90
35541;DHT22;21650;48.840;9.162;2022-12-07T02:13:07;3.30;99.90
35541;DHT22;21650;48.840;9.162;2022-12-07T02:15:43;3.30;99.90
35541;DHT22;21650;48.840;9.162;2022-12-07T02:18:18;3.30;99.90
35541;DHT22;21650;48.840;9.162;2022-12-07T02:21:28;3.30;99.90
35541;DHT22;21650;48.840;9.162;2022-12-07T02:24:14;3.30;99.90
35541;DHT22;21650;48.840;9.162;2022-12-07T02:29:25;3.30;99.90
35541;DHT22;21650;48.840;9.162;2022-12-07T02:32:06;3.30;99.90
35541;DHT22;21650;48.840;9.162;2022-12-07T02:34:51;3.30;99.90
35541;DHT22;21650;48.840;9.162;2022-12-07T02:37:32;3.30;99.90
35541;DHT22;21650;48.840;9.162;2022-12-07T02:40:06;3.30;99.90
35541;DHT22;21650;48.840;9.162;2022-12-07T02:43:04;3.30;99.90
35541;DHT22;21650;48.840;9.162;2022-12-07T02:45:32;3.30;99.90
35541;DHT22;21650;48.840;9.162;2022-12-07T02:48:00;3.30;99.90
35541;DHT22;21650;48.840;9.162;2022-12-07T02:50:28;3.30;99.90
35541;DHT22;21650;48.840;9.162;2022-12-07T02:52:54;3.30;99.90
35541;DHT22;21650;48.840;9.162;2022-12-07T02:55:24;3.30;99.90
35541;DHT22;21650;48.840;9.162;2022-12-07T03:00:44;3.40;99.90
35541;DHT22;21650;48.840;9.162;2022-12-07T03:03:12;3.30;99.90
35541;DHT22;21650;48.840;9.162;2022-12-07T03:05:43;3.30;99.90
35541;DHT22;21650;48.840;9.162;2022-12-07T03:08:33;3.40;99.90
35541;DHT22;21650;48.840;9.162;2022-12-07T03:11:29;3.40;99.90
35541;DHT22;21650;48.840;9.162;2022-12-07T03:16:27;3.40;99.90
35541;DHT22;21650;48.840;9.162;2022-12-07T03:19:04;3.40;99.90
35541;DHT22;21650;48.840;9.162;2022-12-07T03:21:44;3.40;99.90
35541;DHT22;21650;48.840;9.162;2022-12-07T03:24:15;3.40;99.90
35541;DHT22;21650;48.840;9.162;2022-12-07T03:26:46;3.40;99.90
35541;DHT22;21650;48.840;9.162;2022-12-07T03:29:25;3.40;99.90
35541;DHT22;21650;48.840;9.162;2022-12-07T03:32:23;3.40;99.90
35541;DHT22;21650;48.840;9.162;2022-12-07T03:35:11;3.40;99.90
35541;DHT22;21650;48.840;9.162;2022-12-07T03:37:46;3.40;99.90
35541;DHT22;21650;48.840;9.162;2022-12-07T03:40:30;3.40;99.90
35541;DHT22;21650;48.840;9.162;2022-12-07T03:42:59;3.30;99.90
35541;DHT22;21650;48.840;9.162;2022-12-07T03:45:43;3.30;99.90
35541;DHT22;21650;48.840;9.162;2022-12-07T03:51:51;3.40;99.90
35541;DHT22;21650;48.840;9.162;2022-12-07T03:54:26;3.40;99.90
35541;DHT22;21650;48.840;9.162;2022-12-07T03:56:54;3.40;99.90
35541;DHT22;21650;48.840;9.162;2022-12-07T03:59:21;3.40;99.90
35541;DHT22;21650;48.840;9.162;2022-12-07T04:01:55;3.30;99.90
35541;DHT22;21650;48.840;9.162;2022-12-07T04:04:23;3.30;99.90
35541;DHT22;21650;48.840;9.162;2022-12-07T04:06:50;3.20;99.90
35541;DHT22;21650;48.840;9.162;2022-12-07T04:09:16;3.10;99.90
35541;DHT22;21650;48.840;9.162;2022-12-07T04:11:42;3.10;99.90
35541;DHT22;21650;48.840;9.162;2022-12-07T04:14:08;3.10;99.90
35541;DHT22;21650;48.840;9.162;2022-12-07T04:16:49;3.10;99.90
35541;DHT22;21650;48.840;9.162;2022-12-07T04:19:16;3.00;99.90
35541;DHT22;21650;48.840;9.162;2022-12-07T04:21:42;2.90;99.90
35541;DHT22;21650;48.840;9.162;2022-12-07T04:24:07;2.90;99.90
35541;DHT22;21650;48.840;9.162;2022-12-07T04:26:33;3.00;99.90
35541;DHT22;21650;48.840;9.162;2022-12-07T04:28:59;3.00;99.90
35541;DHT22;21650;48.840;9.162;2022-12-07T04:31:24;3.10;99.90
35541;DHT22;21650;48.840;9.162;2022-12-07T04:33:50;3.10;99.90
35541;DHT22;21650;48.840;9.162;2022-12-07T04:36:16;3.10;99.90
35541;DHT22;21650;48.840;9.162;2022-12-07T04:38:42;3.20;99.90
35541;DHT22;21650;48.840;9.162;2022-12-07T04:41:09;3.20;99.90
35541;DHT22;21650;48.840;9.162;2022-12-07T04:43:35;3.20;99.90
35541;DHT22;21650;48.840;9.162;2022-12-07T04:46:01;3.20;99.90
35541;DHT22;21650;48.840;9.162;2022-12-07T04:48:27;3.20;99.90
35541;DHT22;21650;48.840;9.162;2022-12-07T04:50:53;3.20;99.90
35541;DHT22;21650;48.840;9.162;2022-12-07T04:53:19;3.20;99.90
35541;DHT22;21650;48.840;9.162;2022-12-07T04:55:45;3.20;99.90
35541;DHT22;21650;48.840;9.162;2022-12-07T04:58:12;3.20;99.90
35541;DHT22;21650;48.840;9.162;2022-12-07T05:00:38;3.20;99.90
35541;DHT22;21650;48.840;9.162;2022-12-07T05:03:04;3.20;99.90
35541;DHT22;21650;48.840;9.162;2022-12-07T05:05:29;3.20;99.90
35541;DHT22;21650;48.840;9.162;2022-12-07T05:07:55;3.20;99.90
35541;DHT22;21650;48.840;9.162;2022-12-07T05:10:20;3.10;99.90
35541;DHT22;21650;48.840;9.162;2022-12-07T05:12:46;3.10;99.90
35541;DHT22;21650;48.840;9.162;2022-12-07T05:15:13;3.00;99.90
35541;DHT22;21650;48.840;9.162;2022-12-07T05:17:39;3.00;99.90
35541;DHT22;21650;48.840;9.162;2022-12-07T05:20:05;3.00;99.90
35541;DHT22;21650;48.840;9.162;2022-12-07T05:22:31;2.90;99.90
35541;DHT22;21650;48.840;9.162;2022-12-07T05:24:56;2.80;99.90
35541;DHT22;21650;48.840;9.162;2022-12-07T05:27:22;2.80;99.90
35541;DHT22;21650;48.840;9.162;2022-12-07T05:29:50;2.70;99.90
35541;DHT22;21650;48.840;9.162;2022-12-07T05:32:15;2.70;99.90
35541;DHT22;21650;48.840;9.162;2022-12-07T05:34:41;2.60;99.90
35541;DHT22;21650;48.840;9.162;2022-12-07T05:37:06;2.60;99.90
35541;DHT22;21650;48.840;9.162;2022-12-07T05:39:32;2.60;99.90
35541;DHT22;21650;48.840;9.162;2022-12-07T05:41:58;2.50;99.90
35541;DHT22;21650;48.840;9.162;2022-12-07T05:44:43;2.60;99.90
35541;DHT22;21650;48.840;9.162;2022-12-07T05:47:11;2.50;99.90
35541;DHT22;21650;48.840;9.162;2022-12-07T05:49:36;2.50;99.90
35541;DHT22;21650;48.840;9.162;2022-12-07T05:52:02;2.50;99.90
35541;DHT22;21650;48.840;9.162;2022-12-07T05:54:28;2.60;99.90
35541;DHT22;21650;48.840;9.162;2022-12-07T05:56:54;2.60;99.90
35541;DHT22;21650;48.840;9.162;2022-12-07T05:59:20;2.60;99.90
35541;DHT22;21650;48.840;9.162;2022-12-07T06:04:25;2.70;99.90
35541;DHT22;21650;48.840;9.162;2022-12-07T06:06:51;2.70;99.90
35541;DHT22;21650;48.840;9.162;2022-12-07T06:09:18;2.60;99.90
35541;DHT22;21650;48.840;9.162;2022-12-07T06:11:44;2.60;99.90
35541;DHT22;21650;48.840;9.162;2022-12-07T06:14:28;2.60;99.90
35541;DHT22;21650;48.840;9.162;2022-12-07T06:16:53;2.60;99.90
35541;DHT22;21650;48.840;9.162;2022-12-07T06:19:19;2.60;99.90
35541;DHT22;21650;48.840;9.162;2022-12-07T06:21:45;2.70;99.90
35541;DHT22;21650;48.840;9.162;2022-12-07T06:24:11;2.70;99.90
35541;DHT22;21650;48.840;9.162;2022-12-07T06:26:38;2.70;99.90
35541;DHT22;21650;48.840;9.162;2022-12-07T06:29:04;2.70;99.90
35541;DHT22;21650;48.840;9.162;2022-12-07T06:31:30;2.70;99.90
35541;DHT22;21650;48.840;9.162;2022-12-07T06:33:59;2.80;99.90
35541;DHT22;21650;48.840;9.162;2022-12-07T06:36:25;2.80;99.90
35541;DHT22;21650;48.840;9.162;2022-12-07T06:38:51;2.80;99.90
35541;DHT22;21650;48.840;9.162;2022-12-07T06:41:16;2.80;99.90
35541;DHT22;21650;48.840;9.162;2022-12-07T06:43:42;2.80;99.90
35541;DHT22;21650;48.840;9.162;2022-12-07T06:46:08;2.80;99.90
35541;DHT22;21650;48.840;9.162;2022-12-07T06:48:33;2.90;99.90
35541;DHT22;21650;48.840;9.162;2022-12-07T06:50:59;2.80;99.90
35541;DHT22;21650;48.840;9.162;2022-12-07T06:53:25;2.80;99.90
35541;DHT22;21650;48.840;9.162;2022-12-07T06:55:50;2.70;99.90
35541;DHT22;21650;48.840;9.162;2022-12-07T06:58:16;2.80;99.90
35541;DHT22;21650;48.840;9.162;2022-12-07T07:00:42;2.80;99.90
35541;DHT22;21650;48.840;9.162;2022-12-07T07:03:08;2.70;99.90
35541;DHT22;21650;48.840;9.162;2022-12-07T07:05:34;2.70;99.90
35541;DHT22;21650;48.840;9.162;2022-12-07T07:07:59;2.80;99.90
35541;DHT22;21650;48.840;9.162;2022-12-07T07:10:25;2.80;99.90
35541;DHT22;21650;48.840;9.162;2022-12-07T07:12:51;2.80;99.90
35541;DHT22;21650;48.840;9.162;2022-12-07T07:15:16;2.80;99.90
35541;DHT22;21650;48.840;9.162;2022-12-07T07:17:42;2.80;99.90
35541;DHT22;21650;48.840;9.162;2022-12-07T07:20:08;2.80;99.90
35541;DHT22;21650;48.840;9.162;2022-12-07T07:22:34;2.80;99.90
35541;DHT22;21650;48.840;9.162;2022-12-07T07:25:00;2.90;99.90
35541;DHT22;21650;48.840;9.162;2022-12-07T07:27:25;2.90;99.90
35541;DHT22;21650;48.840;9.162;2022-12-07T07:29:51;3.00;99.90
35541;DHT22;21650;48.840;9.162;2022-12-07T07:32:17;2.90;99.90
35541;DHT22;21650;48.840;9.162;2022-12-07T07:34:42;2.90;99.90
35541;DHT22;21650;48.840;9.162;2022-12-07T07:37:08;3.00;99.90
35541;DHT22;21650;48.840;9.162;2022-12-07T07:39:34;3.00;99.90
35541;DHT22;21650;48.840;9.162;2022-12-07T07:41:59;3.10;99.90
35541;DHT22;21650;48.840;9.162;2022-12-07T07:44:25;3.10;99.90
35541;DHT22;21650;48.840;9.162;2022-12-07T07:46:50;3.10;99.90
35541;DHT22;21650;48.840;9.162;2022-12-07T07:49:16;3.10;99.90
35541;DHT22;21650;48.840;9.162;2022-12-07T07:51:41;3.00;99.90
35541;DHT22;21650;48.840;9.162;2022-12-07T07:54:07;3.10;99.90
35541;DHT22;21650;48.840;9.162;2022-12-07T07:56:32;3.10;99.90
35541;DHT22;21650;48.840;9.162;2022-12-07T07:58:58;3.20;99.90
35541;DHT22;21650;48.840;9.162;2022-12-07T08:01:24;3.20;99.90
35541;DHT22;21650;48.840;9.162;2022-12-07T08:03:49;3.20;99.90
35541;DHT22;21650;48.840;9.162;2022-12-07T08:06:15;3.20;99.90
35541;DHT22;21650;48.840;9.162;2022-12-07T08:08:40;3.20;99.90
35541;DHT22;21650;48.840;9.162;2022-12-07T08:11:08;3.20;99.90
35541;DHT22;21650;48.840;9.162;2022-12-07T08:13:34;3.20;99.90
35541;DHT22;21650;48.840;9.162;2022-12-07T08:16:08;3.30;99.90
35541;DHT22;21650;48.840;9.162;2022-12-07T08:18:38;3.30;99.90
35541;DHT22;21650;48.840;9.162;2022-12-07T08:21:05;3.30;99.90
35541;DHT22;21650;48.840;9.162;2022-12-07T08:23:31;3.40;99.90
35541;DHT22;21650;48.840;9.162;2022-12-07T08:26:01;3.40;99.90
35541;DHT22;21650;48.840;9.162;2022-12-07T08:28:28;3.40;99.90
35541;DHT22;21650;48.840;9.162;2022-12-07T08:30:59;3.50;99.90
35541;DHT22;21650;48.840;9.162;2022-12-07T08:33:25;3.50;99.90
35541;DHT22;21650;48.840;9.162;2022-12-07T08:35:51;3.50;99.90
35541;DHT22;21650;48.840;9.162;2022-12-07T08:38:17;3.50;99.90
35541;DHT22;21650;48.840;9.162;2022-12-07T08:40:42;3.60;99.90
35541;DHT22;21650;48.840;9.162;2022-12-07T08:43:08;3.60;99.90
35541;DHT22;21650;48.840;9.162;2022-12-07T08:45:33;3.60;99.90
35541;DHT22;21650;48.840;9.162;2022-12-07T08:48:06;3.60;99.90
35541;DHT22;21650;48.840;9.162;2022-12-07T08:50:32;3.70;99.90
35541;DHT22;21650;48.840;9.162;2022-12-07T08:52:58;3.70;99.90
35541;DHT22;21650;48.840;9.162;2022-12-07T08:55:26;3.80;99.90
35541;DHT22;21650;48.840;9.162;2022-12-07T08:57:52;3.80;99.90
35541;DHT22;21650;48.840;9.162;2022-12-07T09:00:18;3.80;99.90
35541;DHT22;21650;48.840;9.162;2022-12-07T09:02:45;3.90;99.90
35541;DHT22;21650;48.840;9.162;2022-12-07T09:05:11;3.90;99.90
35541;DHT22;21650;48.840;9.162;2022-12-07T09:07:37;4.00;99.90
35541;DHT22;21650;48.840;9.162;2022-12-07T09:10:06;4.00;99.90
35541;DHT22;21650;48.840;9.162;2022-12-07T09:12:32;4.10;99.90
35541;DHT22;21650;48.840;9.162;2022-12-07T09:14:57;4.10;99.90
35541;DHT22;21650;48.840;9.162;2022-12-07T09:17:23;4.20;99.90
35541;DHT22;21650;48.840;9.162;2022-12-07T09:19:49;4.20;99.90
35541;DHT22;21650;48.840;9.162;2022-12-07T09:22:14;4.30;99.90
35541;DHT22;21650;48.840;9.162;2022-12-07T09:24:40;4.30;99.90
35541;DHT22;21650;48.840;9.162;2022-12-07T09:27:06;4.40;99.90
35541;DHT22;21650;48.840;9.162;2022-12-07T09:29:31;4.40;99.90
35541;DHT22;21650;48.840;9.162;2022-12-07T09:31:57;4.40;99.90
35541;DHT22;21650;48.840;9.162;2022-12-07T09:34:22;4.50;99.90
35541;DHT22;21650;48.840;9.162;2022-12-07T09:36:48;4.50;99.90
35541;DHT22;21650;48.840;9.162;2022-12-07T09:39:14;4.50;99.90
35541;DHT22;21650;48.840;9.162;2022-12-07T09:41:42;4.60;99.90
35541;DHT22;21650;48.840;9.162;2022-12-07T09:44:23;4.60;99.90
35541;DHT22;21650;48.840;9.162;2022-12-07T09:46:49;4.60;99.90
35541;DHT22;21650;48.840;9.162;2022-12-07T09:49:21;4.70;99.90
35541;DHT22;21650;48.840;9.162;2022-12-07T09:51:48;4.70;99.90
35541;DHT22;21650;48.840;9.162;2022-12-07T09:54:24;4.70;99.90
35541;DHT22;21650;48.840;9.162;2022-12-07T09:56:50;4.70;99.90
35541;DHT22;21650;48.840;9.162;2022-12-07T09:59:17;4.70;99.90
35541;DHT22;21650;48.840;9.162;2022-12-07T10:01:45;4.70;99.90
35541;DHT22;21650;48.840;9.162;2022-12-07T10:04:16;4.80;99.90
35541;DHT22;21650;48.840;9.162;2022-12-07T10:06:42;4.80;99.90
35541;DHT22;21650;48.840;9.162;2022-12-07T10:09:13;4.90;99.90
35541;DHT22;21650;48.840;9.162;2022-12-07T10:12:09;4.80;99.90
35541;DHT22;21650;48.840;9.162;2022-12-07T10:14:38;4.70;99.90
35541;DHT22;21650;48.840;9.162;2022-12-07T10:17:31;4.70;99.90
35541;DHT22;21650;48.840;9.162;2022-12-07T10:22:54;4.80;99.90
35541;DHT22;21650;48.840;9.162;2022-12-07T10:25:22;4.90;99.90
35541;DHT22;21650;48.840;9.162;2022-12-07T10:30:32;4.80;99.90
35541;DHT22;21650;48.840;9.162;2022-12-07T10:32:58;4.70;99.90
35541;DHT22;21650;48.840;9.162;2022-12-07T10:35:30;4.70;99.90
35541;DHT22;21650;48.840;9.162;2022-12-07T10:37:58;4.70;99.90
35541;DHT22;21650;48.840;9.162;2022-12-07T10:40:30;4.80;99.90
35541;DHT22;21650;48.840;9.162;2022-12-07T10:46:07;4.80;99.90
35541;DHT22;21650;48.840;9.162;2022-12-07T10:54:12;4.90;99.90
35541;DHT22;21650;48.840;9.162;2022-12-07T11:13:04;5.00;99.90
35541;DHT22;21650;48.840;9.162;2022-12-07T11:24:23;4.70;99.90
35541;DHT22;21650;48.840;9.162;2022-12-07T11:27:14;4.70;99.90
35541;DHT22;21650;48.840;9.162;2022-12-07T11:29:56;4.70;99.90
35541;DHT22;21650;48.840;9.162;2022-12-07T11:39:22;4.60;99.90
35541;DHT22;21650;48.840;9.162;2022-12-07T11:41:21;4.60;99.90
35541;DHT22;21650;48.840;9.162;2022-12-07T11:43:56;4.60;99.90
35541;DHT22;21650;48.840;9.162;2022-12-07T11:46:54;4.60;99.90
35541;DHT22;21650;48.840;9.162;2022-12-07T11:51:59;4.70;99.90
35541;DHT22;21650;48.840;9.162;2022-12-07T11:54:32;4.70;99.90
35541;DHT22;21650;48.840;9.162;2022-12-07T11:57:05;4.60;99.90
35541;DHT22;21650;48.840;9.162;2022-12-07T12:07:40;4.60;99.90
35541;DHT22;21650;48.840;9.162;2022-12-07T12:10:34;4.60;99.90
35541;DHT22;21650;48.840;9.162;2022-12-07T12:21:20;4.60;99.90
35541;DHT22;21650;48.840;9.162;2022-12-07T12:26:22;4.70;99.90
35541;DHT22;21650;48.840;9.162;2022-12-07T12:33:51;4.60;99.90
35541;DHT22;21650;48.840;9.162;2022-12-07T12:36:28;4.70;99.90
35541;DHT22;21650;48.840;9.162;2022-12-07T12:57:05;4.50;99.90
35541;DHT22;21650;48.840;9.162;2022-12-07T12:59:34;4.50;99.90
35541;DHT22;21650;48.840;9.162;2022-12-07T13:15:33;4.60;99.90
35541;DHT22;21650;48.840;9.162;2022-12-07T13:18:01;4.70;99.90
35541;DHT22;21650;48.840;9.162;2022-12-07T13:20:48;4.60;99.90
35541;DHT22;21650;48.840;9.162;2022-12-07T13:29:16;4.60;99.90
35541;DHT22;21650;48.840;9.162;2022-12-07T13:31:56;4.60;99.90
35541;DHT22;21650;48.840;9.162;2022-12-07T13:34:37;4.50;99.90
35541;DHT22;21650;48.840;9.162;2022-12-07T13:37:10;4.60;99.90
35541;DHT22;21650;48.840;9.162;2022-12-07T13:39:52;4.60;99.90
35541;DHT22;21650;48.840;9.162;2022-12-07T13:42:27;4.50;99.90
35541;DHT22;21650;48.840;9.162;2022-12-07T13:44:54;4.50;99.90
35541;DHT22;21650;48.840;9.162;2022-12-07T13:47:43;4.50;99.90
35541;DHT22;21650;48.840;9.162;2022-12-07T13:50:36;4.60;99.90
35541;DHT22;21650;48.840;9.162;2022-12-07T13:53:07;4.60;99.90
35541;DHT22;21650;48.840;9.162;2022-12-07T13:55:44;4.60;99.90
35541;DHT22;21650;48.840;9.162;2022-12-07T13:58:10;4.70;99.90
35541;DHT22;21650;48.840;9.162;2022-12-07T14:00:36;4.70;99.90
35541;DHT22;21650;48.840;9.162;2022-12-07T14:05:34;4.70;99.90
35541;DHT22;21650;48.840;9.162;2022-12-07T14:10:40;4.80;99.90
35541;DHT22;21650;48.840;9.162;2022-12-07T14:13:30;4.70;99.90
35541;DHT22;21650;48.840;9.162;2022-12-07T14:15:58;4.80;99.90
35541;DHT22;21650;48.840;9.162;2022-12-07T14:23:38;4.70;99.90
35541;DHT22;21650;48.840;9.162;2022-12-07T14:26:19;4.70;99.90
35541;DHT22;21650;48.840;9.162;2022-12-07T14:28:46;4.70;99.90
35541;DHT22;21650;48.840;9.162;2022-12-07T14:31:14;4.60;99.90
35541;DHT22;21650;48.840;9.162;2022-12-07T14:33:41;4.60;99.90
35541;DHT22;21650;48.840;9.162;2022-12-07T14:36:11;4.60;99.90
35541;DHT22;21650;48.840;9.162;2022-12-07T14:38:37;4.60;99.90
35541;DHT22;21650;48.840;9.162;2022-12-07T14:41:04;4.60;99.90
35541;DHT22;21650;48.840;9.162;2022-12-07T14:43:50;4.60;99.90
35541;DHT22;21650;48.840;9.162;2022-12-07T14:46:15;4.50;99.90
35541;DHT22;21650;48.840;9.162;2022-12-07T14:48:41;4.50;99.90
35541;DHT22;21650;48.840;9.162;2022-12-07T14:51:10;4.60;99.90
35541;DHT22;21650;48.840;9.162;2022-12-07T14:53:44;4.60;99.90
35541;DHT22;21650;48.840;9.162;2022-12-07T14:56:11;4.60;99.90
35541;DHT22;21650;48.840;9.162;2022-12-07T14:58:37;4.50;99.90
35541;DHT22;21650;48.840;9.162;2022-12-07T15:01:03;4.50;99.90
35541;DHT22;21650;48.840;9.162;2022-12-07T15:03:29;4.40;99.90
35541;DHT22;21650;48.840;9.162;2022-12-07T15:05:55;4.40;99.90
35541;DHT22;21650;48.840;9.162;2022-12-07T15:08:21;4.40;99.90
35541;DHT22;21650;48.840;9.162;2022-12-07T15:10:46;4.40;99.90
35541;DHT22;21650;48.840;9.162;2022-12-07T15:13:12;4.40;99.90
35541;DHT22;21650;48.840;9.162;2022-12-07T15:15:56;4.30;99.90
35541;DHT22;21650;48.840;9.162;2022-12-07T15:18:23;4.30;99.90
35541;DHT22;21650;48.840;9.162;2022-12-07T15:20:49;4.30;99.90
35541;DHT22;21650;48.840;9.162;2022-12-07T15:23:15;4.20;99.90
35541;DHT22;21650;48.840;9.162;2022-12-07T15:25:42;4.20;99.90
35541;DHT22;21650;48.840;9.162;2022-12-07T15:28:09;4.10;99.90
35541;DHT22;21650;48.840;9.162;2022-12-07T15:30:37;4.10;99.90
35541;DHT22;21650;48.840;9.162;2022-12-07T15:33:02;4.10;99.90
35541;DHT22;21650;48.840;9.162;2022-12-07T15:35:28;4.00;99.90
35541;DHT22;21650;48.840;9.162;2022-12-07T15:37:53;4.00;99.90
35541;DHT22;21650;48.840;9.162;2022-12-07T15:40:19;4.00;99.90
35541;DHT22;21650;48.840;9.162;2022-12-07T15:42:44;4.00;99.90
35541;DHT22;21650;48.840;9.162;2022-12-07T15:45:10;3.90;99.90
35541;DHT22;21650;48.840;9.162;2022-12-07T15:47:43;3.90;99.90
35541;DHT22;21650;48.840;9.162;2022-12-07T15:50:14;3.90;99.90
35541;DHT22;21650;48.840;9.162;2022-12-07T15:52:40;3.90;99.90
35541;DHT22;21650;48.840;9.162;2022-12-07T15:55:06;3.80;99.90
35541;DHT22;21650;48.840;9.162;2022-12-07T15:57:34;3.80;99.90
35541;DHT22;21650;48.840;9.162;2022-12-07T16:00:00;3.80;99.90
35541;DHT22;21650;48.840;9.162;2022-12-07T16:02:26;3.80;99.90
35541;DHT22;21650;48.840;9.162;2022-12-07T16:04:52;3.70;99.90
35541;DHT22;21650;48.840;9.162;2022-12-07T16:07:18;3.70;99.90
35541;DHT22;21650;48.840;9.162;2022-12-07T16:09:45;3.70;99.90
35541;DHT22;21650;48.840;9.162;2022-12-07T16:12:12;3.70;99.90
35541;DHT22;21650;48.840;9.162;2022-12-07T16:14:39;3.60;99.90
35541;DHT22;21650;48.840;9.162;2022-12-07T16:17:05;3.60;99.90
35541;DHT22;21650;48.840;9.162;2022-12-07T16:19:32;3.60;99.90
35541;DHT22;21650;48.840;9.162;2022-12-07T16:21:58;3.50;99.90
35541;DHT22;21650;48.840;9.162;2022-12-07T16:24:24;3.50;99.90
35541;DHT22;21650;48.840;9.162;2022-12-07T16:26:50;3.50;99.90
35541;DHT22;21650;48.840;9.162;2022-12-07T16:29:17;3.50;99.90
35541;DHT22;21650;48.840;9.162;2022-12-07T16:31:43;3.40;99.90
35541;DHT22;21650;48.840;9.162;2022-12-07T16:34:08;3.40;99.90
35541;DHT22;21650;48.840;9.162;2022-12-07T16:36:34;3.40;99.90
35541;DHT22;21650;48.840;9.162;2022-12-07T16:39:00;3.40;99.90
35541;DHT22;21650;48.840;9.162;2022-12-07T16:41:26;3.30;99.90
35541;DHT22;21650;48.840;9.162;2022-12-07T16:43:51;3.30;99.90
35541;DHT22;21650;48.840;9.162;2022-12-07T16:46:17;3.30;99.90
35541;DHT22;21650;48.840;9.162;2022-12-07T16:48:43;3.20;99.90
35541;DHT22;21650;48.840;9.162;2022-12-07T16:51:11;3.20;99.90
35541;DHT22;21650;48.840;9.162;2022-12-07T16:53:38;3.20;99.90
35541;DHT22;21650;48.840;9.162;2022-12-07T16:56:09;3.20;99.90
35541;DHT22;21650;48.840;9.162;2022-12-07T16:58:35;3.20;99.90
35541;DHT22;21650;48.840;9.162;2022-12-07T17:01:12;3.20;99.90
35541;DHT22;21650;48.840;9.162;2022-12-07T17:03:38;3.20;99.90
35541;DHT22;21650;48.840;9.162;2022-12-07T17:06:14;3.20;99.90
35541;DHT22;21650;48.840;9.162;2022-12-07T17:08:40;3.20;99.90
35541;DHT22;21650;48.840;9.162;2022-12-07T17:11:26;3.20;99.90
35541;DHT22;21650;48.840;9.162;2022-12-07T17:13:52;3.30;99.90
35541;DHT22;21650;48.840;9.162;2022-12-07T17:16:37;3.30;99.90
35541;DHT22;21650;48.840;9.162;2022-12-07T17:19:11;3.30;99.90
35541;DHT22;21650;48.840;9.162;2022-12-07T17:21:38;3.30;99.90
35541;DHT22;21650;48.840;9.162;2022-12-07T17:24:06;3.30;99.90
35541;DHT22;21650;48.840;9.162;2022-12-07T17:26:32;3.40;99.90
35541;DHT22;21650;48.840;9.162;2022-12-07T17:28:59;3.40;99.90
35541;DHT22;21650;48.840;9.162;2022-12-07T17:31:25;3.50;99.90
35541;DHT22;21650;48.840;9.162;2022-12-07T17:33:51;3.50;99.90
35541;DHT22;21650;48.840;9.162;2022-12-07T17:36:24;3.50;99.90
35541;DHT22;21650;48.840;9.162;2022-12-07T17:38:51;3.50;99.90
35541;DHT22;21650;48.840;9.162;2022-12-07T17:41:22;3.50;99.90
35541;DHT22;21650;48.840;9.162;2022-12-07T17:44:12;3.50;99.90
35541;DHT22;21650;48.840;9.162;2022-12-07T17:46:38;3.50;99.90
35541;DHT22;21650;48.840;9.162;2022-12-07T17:49:04;3.50;99.90
35541;DHT22;21650;48.840;9.162;2022-12-07T17:51:30;3.40;99.90
35541;DHT22;21650;48.840;9.162;2022-12-07T17:54:15;3.40;99.90
35541;DHT22;21650;48.840;9.162;2022-12-07T17:56:41;3.40;99.90
35541;DHT22;21650;48.840;9.162;2022-12-07T17:59:07;3.40;99.90
35541;DHT22;21650;48.840;9.162;2022-12-07T18:01:33;3.40;99.90
35541;DHT22;21650;48.840;9.162;2022-12-07T18:03:59;3.40;99.90
35541;DHT22;21650;48.840;9.162;2022-12-07T18:06:25;3.40;99.90
35541;DHT22;21650;48.840;9.162;2022-12-07T18:08:50;3.30;99.90
35541;DHT22;21650;48.840;9.162;2022-12-07T18:11:16;3.30;99.90
35541;DHT22;21650;48.840;9.162;2022-12-07T18:13:42;3.30;99.90
35541;DHT22;21650;48.840;9.162;2022-12-07T18:16:10;3.30;99.90
35541;DHT22;21650;48.840;9.162;2022-12-07T18:18:37;3.30;99.90